createdAt,value
2023-01-19T00:08:43.758Z,462
2023-01-19T00:28:43.689Z,461
2023-01-19T00:48:43.839Z,461
2023-01-19T01:08:43.879Z,460
2023-01-19T01:28:43.943Z,460
2023-01-19T02:08:44.042Z,459
2023-01-19T02:28:44.104Z,459
2023-01-19T02:48:44.164Z,460
2023-01-19T03:08:44.406Z,457
2023-01-19T03:28:44.250Z,457
2023-01-19T03:48:44.291Z,457
2023-01-19T04:48:44.361Z,453
2023-01-19T05:08:45.420Z,449
2023-01-19T05:28:44.548Z,449
2023-01-19T05:48:44.491Z,452
2023-01-19T06:08:44.643Z,449
2023-01-19T06:28:44.669Z,449
2023-01-19T06:48:44.733Z,452
2023-01-19T07:08:44.788Z,456
2023-01-19T07:48:44.877Z,454
2023-01-19T08:08:44.928Z,455
2023-01-19T08:28:44.982Z,456
2023-01-19T08:48:45.026Z,449
2023-01-19T09:08:44.963Z,456
2023-01-19T09:28:45.150Z,456
2023-01-19T09:48:52.206Z,455
2023-01-19T10:08:59.253Z,451
2023-01-19T10:28:45.281Z,454
2023-01-19T10:48:45.354Z,454
2023-01-19T11:08:45.402Z,457
2023-01-19T11:28:45.431Z,455
2023-01-19T11:48:45.470Z,457
2023-01-19T12:28:52.594Z,455
2023-01-19T13:08:45.647Z,452
2023-01-19T13:28:45.616Z,451
2023-01-19T13:48:52.759Z,452
2023-01-19T14:08:52.845Z,450
2023-01-19T14:28:45.744Z,452
2023-01-19T14:48:45.899Z,451
2023-01-19T15:08:45.850Z,452
2023-01-19T15:28:46.001Z,451
2023-01-19T15:48:53.066Z,449
2023-01-19T16:28:46.149Z,452
2023-01-19T17:28:53.196Z,447
2023-01-19T17:48:46.336Z,445
2023-01-19T18:08:53.366Z,444
2023-01-19T18:48:53.478Z,442
2023-01-19T19:08:46.541Z,441
2023-01-19T19:28:46.578Z,440
2023-01-19T20:28:46.713Z,442
2023-01-19T21:48:46.929Z,439
2023-01-19T22:08:53.993Z,436
2023-01-19T22:48:47.067Z,440
2023-01-19T23:28:47.224Z,439
